This is the latest recevied weather packets stored in our database for station/object YM2KV-13. If no packets are shown the sender has not sent any weather packets the latest 10 day(s).
| Time | Temp. | Humidity | Pressure | Rain* | Wind** | Luminosity | Snow |
|---|---|---|---|---|---|---|---|
| 1777874985 | 8.33° C | 90% | 1019.8 hPa | - | - | - | - |
| 1777874385 | 8.33° C | 91% | 1019.7 hPa | - | - | - | - |
| 1777873785 | 8.33° C | 91% | 1019.6 hPa | - | - | - | - |
| 1777873185 | 8.33° C | 91% | 1019.6 hPa | - | - | - | - |
| 1777872585 | 8.33° C | 91% | 1019.6 hPa | - | - | - | - |
| 1777871985 | 7.78° C | 91% | 1019.5 hPa | - | - | - | - |
| 1777871385 | 7.78° C | 90% | 1019.3 hPa | - | - | - | - |
| 1777870785 | 7.78° C | 89% | 1019.3 hPa | - | - | - | - |
| 1777870185 | 7.78° C | 90% | 1019.2 hPa | - | - | - | - |
| 1777869585 | 8.33° C | 92% | 1019.2 hPa | - | - | - | - |
| 1777868985 | 8.33° C | 90% | 1019.1 hPa | - | - | - | - |
| 1777868385 | 8.33° C | 91% | 1019.1 hPa | - | - | - | - |
| 1777867785 | 8.33° C | 92% | 1019 hPa | - | - | - | - |
| 1777867185 | 8.33° C | 91% | 1019 hPa | - | - | - | - |
| 1777847985 | 8.89° C | 89% | 1019.1 hPa | - | - | - | - |
| 1777847385 | 8.89° C | 88% | 1019.3 hPa | - | - | - | - |
| 1777845585 | 8.89° C | 87% | 1019.5 hPa | - | - | - | - |
| 1777843185 | 8.89° C | 88% | 1019.9 hPa | - | - | - | - |
| 1777838385 | 9.44° C | 86% | 1020.1 hPa | - | - | - | - |
| 1777820384 | 10.56° C | 78% | 1021.4 hPa | - | - | - | - |
| 1777817384 | 11.11° C | 72% | 1021.7 hPa | - | - | - | - |
| 1777811384 | 12.22° C | 70% | 1021.9 hPa | - | - | - | - |
| 1777810784 | 11.67° C | 69% | 1022.1 hPa | - | - | - | - |
| 1777809584 | 12.22° C | 69% | 1022.5 hPa | - | - | - | - |
| 1777804784 | 14.44° C | 60% | 1022.9 hPa | - | - | - | - |
* Rain since midnight (hover to see other rain measurements)
** Current wind speed in m/s (hover to see current wind gust speed)